sensor_id;sensor_type;location;lat;lon;timestamp;pressure;altitude;pressure_sealevel;temperature;humidity
54628;BME280;40525;55.926;21.066;2023-04-29T00:02:06;101794.77;;;2.69;72.69
54628;BME280;40525;55.926;21.066;2023-04-29T00:04:53;101789.54;;;2.65;72.47
54628;BME280;40525;55.926;21.066;2023-04-29T00:07:27;101793.17;;;2.61;72.67
54628;BME280;40525;55.926;21.066;2023-04-29T00:10:15;101794.21;;;2.60;73.12
54628;BME280;40525;55.926;21.066;2023-04-29T00:12:49;101788.83;;;2.60;73.54
54628;BME280;40525;55.926;21.066;2023-04-29T00:15:37;101788.83;;;2.60;73.73
54628;BME280;40525;55.926;21.066;2023-04-29T00:18:13;101787.43;;;2.59;73.57
54628;BME280;40525;55.926;21.066;2023-04-29T00:21:01;101789.67;;;2.54;73.37
54628;BME280;40525;55.926;21.066;2023-04-29T00:23:35;101787.21;;;2.50;73.28
54628;BME280;40525;55.926;21.066;2023-04-29T00:26:22;101785.96;;;2.43;73.06
54628;BME280;40525;55.926;21.066;2023-04-29T00:28:55;101788.02;;;2.40;73.23
54628;BME280;40525;55.926;21.066;2023-04-29T00:31:43;101786.80;;;2.39;73.78
54628;BME280;40525;55.926;21.066;2023-04-29T00:34:17;101789.41;;;2.37;74.03
54628;BME280;40525;55.926;21.066;2023-04-29T00:37:04;101791.48;;;2.36;73.95
54628;BME280;40525;55.926;21.066;2023-04-29T00:39:37;101787.32;;;2.33;73.79
54628;BME280;40525;55.926;21.066;2023-04-29T00:42:24;101785.90;;;2.32;73.53
54628;BME280;40525;55.926;21.066;2023-04-29T00:44:57;101789.54;;;2.29;73.43
54628;BME280;40525;55.926;21.066;2023-04-29T00:47:47;101789.70;;;2.26;73.26
54628;BME280;40525;55.926;21.066;2023-04-29T00:50:20;101787.07;;;2.25;73.58
54628;BME280;40525;55.926;21.066;2023-04-29T00:53:09;101781.38;;;2.26;74.39
54628;BME280;40525;55.926;21.066;2023-04-29T00:55:45;101778.07;;;2.27;74.47
54628;BME280;40525;55.926;21.066;2023-04-29T00:58:32;101778.07;;;2.26;74.37
54628;BME280;40525;55.926;21.066;2023-04-29T01:01:07;101777.89;;;2.25;74.26
54628;BME280;40525;55.926;21.066;2023-04-29T01:03:56;101772.66;;;2.23;74.10
54628;BME280;40525;55.926;21.066;2023-04-29T01:07:13;101774.39;;;2.20;73.81
54628;BME280;40525;55.926;21.066;2023-04-29T01:10:09;101771.93;;;2.15;73.75
54628;BME280;40525;55.926;21.066;2023-04-29T01:12:55;101771.75;;;2.13;73.88
54628;BME280;40525;55.926;21.066;2023-04-29T01:16:00;101771.39;;;2.15;74.35
54628;BME280;40525;55.926;21.066;2023-04-29T01:18:40;101769.16;;;2.17;74.76
54628;BME280;40525;55.926;21.066;2023-04-29T01:21:45;101770.21;;;2.18;74.71
54628;BME280;40525;55.926;21.066;2023-04-29T01:24:20;101775.23;;;2.16;74.61
54628;BME280;40525;55.926;21.066;2023-04-29T01:27:30;101774.70;;;2.14;74.40
54628;BME280;40525;55.926;21.066;2023-04-29T01:33:28;101777.42;;;2.07;74.23
54628;BME280;40525;55.926;21.066;2023-04-29T01:36:32;101779.34;;;2.07;74.72
54628;BME280;40525;55.926;21.066;2023-04-29T01:39:29;101777.27;;;2.08;74.85
54628;BME280;40525;55.926;21.066;2023-04-29T01:42:23;101777.44;;;2.08;74.64
54628;BME280;40525;55.926;21.066;2023-04-29T01:45:07;101778.80;;;2.06;74.61
54628;BME280;40525;55.926;21.066;2023-04-29T01:47:51;101781.91;;;2.04;74.38
54628;BME280;40525;55.926;21.066;2023-04-29T01:50:33;101783.10;;;2.00;74.23
54628;BME280;40525;55.926;21.066;2023-04-29T01:53:15;101780.65;;;1.97;74.26
54628;BME280;40525;55.926;21.066;2023-04-29T01:55:55;101777.36;;;1.96;74.79
54628;BME280;40525;55.926;21.066;2023-04-29T01:58:45;101774.58;;;1.97;75.13
54628;BME280;40525;55.926;21.066;2023-04-29T02:01:39;101773.71;;;1.97;75.21
54628;BME280;40525;55.926;21.066;2023-04-29T02:04:19;101773.19;;;1.95;75.06
54628;BME280;40525;55.926;21.066;2023-04-29T02:07:08;101774.38;;;1.92;74.84
54628;BME280;40525;55.926;21.066;2023-04-29T02:09:44;101769.32;;;1.88;74.72
54628;BME280;40525;55.926;21.066;2023-04-29T02:12:32;101770.15;;;1.83;74.53
54628;BME280;40525;55.926;21.066;2023-04-29T02:15:06;101769.96;;;1.80;74.68
54628;BME280;40525;55.926;21.066;2023-04-29T02:17:54;101766.48;;;1.79;74.94
54628;BME280;40525;55.926;21.066;2023-04-29T02:20:48;101766.14;;;1.80;75.24
54628;BME280;40525;55.926;21.066;2023-04-29T02:23:42;101763.55;;;1.81;75.41
54628;BME280;40525;55.926;21.066;2023-04-29T02:26:15;101766.33;;;1.81;75.33
54628;BME280;40525;55.926;21.066;2023-04-29T02:29:03;101763.54;;;1.80;75.15
54628;BME280;40525;55.926;21.066;2023-04-29T02:31:36;101764.73;;;1.78;74.97
54628;BME280;40525;55.926;21.066;2023-04-29T02:34:22;101757.44;;;1.75;74.79
54628;BME280;40525;55.926;21.066;2023-04-29T02:36:56;101758.63;;;1.73;74.62
54628;BME280;40525;55.926;21.066;2023-04-29T02:39:45;101755.66;;;1.70;74.61
54628;BME280;40525;55.926;21.066;2023-04-29T02:42:19;101758.27;;;1.71;75.01
54628;BME280;40525;55.926;21.066;2023-04-29T02:45:07;101752.06;;;1.74;75.58
54628;BME280;40525;55.926;21.066;2023-04-29T02:47:41;101749.83;;;1.76;75.69
54628;BME280;40525;55.926;21.066;2023-04-29T02:50:28;101749.82;;;1.77;75.50
54628;BME280;40525;55.926;21.066;2023-04-29T02:53:03;101750.52;;;1.78;75.31
54628;BME280;40525;55.926;21.066;2023-04-29T02:55:49;101750.69;;;1.76;75.24
54628;BME280;40525;55.926;21.066;2023-04-29T02:58:23;101748.41;;;1.73;75.04
54628;BME280;40525;55.926;21.066;2023-04-29T03:01:10;101748.89;;;1.70;74.86
54628;BME280;40525;55.926;21.066;2023-04-29T03:03:45;101746.46;;;1.68;74.75
54628;BME280;40525;55.926;21.066;2023-04-29T03:06:33;101742.99;;;1.68;75.26
54628;BME280;40525;55.926;21.066;2023-04-29T03:09:09;101744.25;;;1.73;75.63
54628;BME280;40525;55.926;21.066;2023-04-29T03:11:57;101746.69;;;1.75;75.67
54628;BME280;40525;55.926;21.066;2023-04-29T03:14:31;101747.91;;;1.76;75.54
54628;BME280;40525;55.926;21.066;2023-04-29T03:17:18;101745.67;;;1.77;75.33
54628;BME280;40525;55.926;21.066;2023-04-29T03:20:13;101743.73;;;1.75;75.16
54628;BME280;40525;55.926;21.066;2023-04-29T03:23:08;101747.55;;;1.73;74.95
54628;BME280;40525;55.926;21.066;2023-04-29T03:25:42;101747.52;;;1.70;74.78
54628;BME280;40525;55.926;21.066;2023-04-29T03:28:28;101747.00;;;1.70;74.85
54628;BME280;40525;55.926;21.066;2023-04-29T03:31:02;101745.63;;;1.73;75.27
54628;BME280;40525;55.926;21.066;2023-04-29T03:33:51;101748.45;;;1.78;75.67
54628;BME280;40525;55.926;21.066;2023-04-29T03:36:26;101745.17;;;1.82;75.70
54628;BME280;40525;55.926;21.066;2023-04-29T03:39:14;101740.70;;;1.84;75.52
54628;BME280;40525;55.926;21.066;2023-04-29T03:41:48;101743.84;;;1.87;75.38
54628;BME280;40525;55.926;21.066;2023-04-29T03:44:34;101738.31;;;1.90;75.15
54628;BME280;40525;55.926;21.066;2023-04-29T03:47:08;101736.59;;;1.94;74.98
54628;BME280;40525;55.926;21.066;2023-04-29T03:49:54;101733.14;;;1.97;74.77
54628;BME280;40525;55.926;21.066;2023-04-29T03:52:28;101733.00;;;2.02;74.67
54628;BME280;40525;55.926;21.066;2023-04-29T03:55:19;101729.92;;;2.09;74.92
54628;BME280;40525;55.926;21.066;2023-04-29T03:57:53;101730.84;;;2.19;75.42
54628;BME280;40525;55.926;21.066;2023-04-29T04:00:39;101729.85;;;2.27;75.40
54628;BME280;40525;55.926;21.066;2023-04-29T04:03:18;101726.57;;;2.33;75.16
54628;BME280;40525;55.926;21.066;2023-04-29T04:06:08;101727.30;;;2.39;74.93
54628;BME280;40525;55.926;21.066;2023-04-29T04:08:43;101721.59;;;2.44;74.67
54628;BME280;40525;55.926;21.066;2023-04-29T04:11:33;101721.25;;;2.47;74.32
54628;BME280;40525;55.926;21.066;2023-04-29T04:14:08;101720.06;;;2.50;74.18
54628;BME280;40525;55.926;21.066;2023-04-29T04:16:56;101721.45;;;2.53;74.11
54628;BME280;40525;55.926;21.066;2023-04-29T04:19:51;101719.38;;;2.54;73.88
54628;BME280;40525;55.926;21.066;2023-04-29T04:22:45;101716.77;;;2.55;73.78
54628;BME280;40525;55.926;21.066;2023-04-29T04:25:23;101714.34;;;2.54;73.68
54628;BME280;40525;55.926;21.066;2023-04-29T04:28:26;101712.25;;;2.53;73.41
54628;BME280;40525;55.926;21.066;2023-04-29T04:31:05;101706.86;;;2.52;73.50
54628;BME280;40525;55.926;21.066;2023-04-29T04:33:54;101704.27;;;2.52;73.58
54628;BME280;40525;55.926;21.066;2023-04-29T04:36:30;101701.67;;;2.55;73.72
54628;BME280;40525;55.926;21.066;2023-04-29T04:39:17;101699.80;;;2.63;74.29
54628;BME280;40525;55.926;21.066;2023-04-29T04:41:52;101697.39;;;2.72;74.23
54628;BME280;40525;55.926;21.066;2023-04-29T04:44:38;101697.41;;;2.83;74.16
54628;BME280;40525;55.926;21.066;2023-04-29T04:47:29;101696.73;;;2.93;73.97
54628;BME280;40525;55.926;21.066;2023-04-29T04:50:23;101697.61;;;3.01;73.74
54628;BME280;40525;55.926;21.066;2023-04-29T04:53:03;101694.15;;;3.08;73.48
54628;BME280;40525;55.926;21.066;2023-04-29T04:55:49;101694.85;;;3.14;73.31
54628;BME280;40525;55.926;21.066;2023-04-29T04:58:30;101691.02;;;3.20;73.10
54628;BME280;40525;55.926;21.066;2023-04-29T05:01:11;101690.34;;;3.25;72.89
54628;BME280;40525;55.926;21.066;2023-04-29T05:03:51;101688.77;;;3.31;72.80
54628;BME280;40525;55.926;21.066;2023-04-29T05:06:33;101691.55;;;3.36;72.72
54628;BME280;40525;55.926;21.066;2023-04-29T05:09:13;101688.61;;;3.43;72.54
54628;BME280;40525;55.926;21.066;2023-04-29T05:11:55;101687.03;;;3.48;72.40
54628;BME280;40525;55.926;21.066;2023-04-29T05:14:34;101683.39;;;3.55;72.30
54628;BME280;40525;55.926;21.066;2023-04-29T05:17:15;101684.77;;;3.62;72.19
54628;BME280;40525;55.926;21.066;2023-04-29T05:19:55;101676.92;;;3.69;72.00
54628;BME280;40525;55.926;21.066;2023-04-29T05:22:35;101671.16;;;3.76;71.92
54628;BME280;40525;55.926;21.066;2023-04-29T05:25:15;101674.79;;;3.88;71.97
54628;BME280;40525;55.926;21.066;2023-04-29T05:27:56;101667.64;;;4.01;72.27
54628;BME280;40525;55.926;21.066;2023-04-29T05:30:39;101668.63;;;4.16;72.46
54628;BME280;40525;55.926;21.066;2023-04-29T05:33:19;101663.00;;;4.30;72.57
54628;BME280;40525;55.926;21.066;2023-04-29T05:35:59;101667.83;;;4.41;72.27
54628;BME280;40525;55.926;21.066;2023-04-29T05:38:40;101665.35;;;4.49;72.09
54628;BME280;40525;55.926;21.066;2023-04-29T05:41:21;101666.35;;;4.57;71.74
54628;BME280;40525;55.926;21.066;2023-04-29T05:44:02;101661.77;;;4.65;71.63
54628;BME280;40525;55.926;21.066;2023-04-29T05:46:45;101657.70;;;4.74;71.52
54628;BME280;40525;55.926;21.066;2023-04-29T05:49:24;101659.05;;;4.82;71.28
54628;BME280;40525;55.926;21.066;2023-04-29T05:52:04;101657.41;;;4.92;71.26
54628;BME280;40525;55.926;21.066;2023-04-29T05:54:49;101657.86;;;5.03;70.96
54628;BME280;40525;55.926;21.066;2023-04-29T05:57:29;101651.51;;;5.13;71.04
54628;BME280;40525;55.926;21.066;2023-04-29T06:00:10;101654.73;;;5.23;70.70
54628;BME280;40525;55.926;21.066;2023-04-29T06:02:52;101653.25;;;5.34;70.51
54628;BME280;40525;55.926;21.066;2023-04-29T06:05:33;101649.65;;;5.47;70.19
54628;BME280;40525;55.926;21.066;2023-04-29T06:08:28;101648.65;;;5.60;69.96
54628;BME280;40525;55.926;21.066;2023-04-29T06:11:21;101648.81;;;5.78;70.25
54628;BME280;40525;55.926;21.066;2023-04-29T06:14:07;101645.70;;;5.94;70.32
54628;BME280;40525;55.926;21.066;2023-04-29T06:16:47;101642.55;;;6.09;70.01
54628;BME280;40525;55.926;21.066;2023-04-29T06:19:35;101646.95;;;6.20;69.52
54628;BME280;40525;55.926;21.066;2023-04-29T06:22:30;101646.77;;;6.34;69.00
54628;BME280;40525;55.926;21.066;2023-04-29T06:25:04;101644.16;;;6.47;68.66
54628;BME280;40525;55.926;21.066;2023-04-29T06:27:58;101642.96;;;6.58;67.38
54628;BME280;40525;55.926;21.066;2023-04-29T06:30:32;101637.73;;;6.70;66.00
54628;BME280;40525;55.926;21.066;2023-04-29T06:33:20;101637.02;;;6.81;66.72
54628;BME280;40525;55.926;21.066;2023-04-29T06:35:54;101637.70;;;6.94;65.39
54628;BME280;40525;55.926;21.066;2023-04-29T06:38:43;101633.86;;;7.06;64.76
54628;BME280;40525;55.926;21.066;2023-04-29T06:41:20;101637.14;;;7.18;65.18
54628;BME280;40525;55.926;21.066;2023-04-29T06:44:07;101636.42;;;7.30;65.12
54628;BME280;40525;55.926;21.066;2023-04-29T06:47:16;101631.30;;;7.43;64.87
54628;BME280;40525;55.926;21.066;2023-04-29T06:50:11;101632.83;;;7.56;63.78
54628;BME280;40525;55.926;21.066;2023-04-29T06:52:51;101626.65;;;7.68;63.72
54628;BME280;40525;55.926;21.066;2023-04-29T06:55:31;101628.49;;;7.80;64.19
54628;BME280;40525;55.926;21.066;2023-04-29T06:58:12;101624.94;;;7.93;63.47
54628;BME280;40525;55.926;21.066;2023-04-29T07:00:52;101624.45;;;8.08;61.37
54628;BME280;40525;55.926;21.066;2023-04-29T07:03:32;101626.23;;;8.24;62.03
54628;BME280;40525;55.926;21.066;2023-04-29T07:06:12;101622.06;;;8.39;62.12
54628;BME280;40525;55.926;21.066;2023-04-29T07:08:52;101617.86;;;8.55;61.56
54628;BME280;40525;55.926;21.066;2023-04-29T07:11:32;101618.08;;;8.69;61.11
54628;BME280;40525;55.926;21.066;2023-04-29T07:14:12;101613.09;;;8.80;60.32
54628;BME280;40525;55.926;21.066;2023-04-29T07:16:55;101612.70;;;8.96;61.08
54628;BME280;40525;55.926;21.066;2023-04-29T07:19:42;101606.11;;;9.14;59.56
54628;BME280;40525;55.926;21.066;2023-04-29T07:22:37;101604.01;;;9.35;58.07
54628;BME280;40525;55.926;21.066;2023-04-29T07:25:18;101604.19;;;9.54;57.59
54628;BME280;40525;55.926;21.066;2023-04-29T07:27:59;101606.39;;;9.70;58.28
54628;BME280;40525;55.926;21.066;2023-04-29T07:30:40;101603.35;;;9.85;56.35
54628;BME280;40525;55.926;21.066;2023-04-29T07:33:20;101598.64;;;9.96;56.79
54628;BME280;40525;55.926;21.066;2023-04-29T07:36:01;101600.84;;;10.11;56.97
54628;BME280;40525;55.926;21.066;2023-04-29T07:38:41;101597.89;;;10.22;55.50
54628;BME280;40525;55.926;21.066;2023-04-29T07:41:21;101593.77;;;10.30;55.67
54628;BME280;40525;55.926;21.066;2023-04-29T07:44:01;101592.95;;;10.41;55.92
54628;BME280;40525;55.926;21.066;2023-04-29T07:46:41;101586.08;;;10.53;55.44
54628;BME280;40525;55.926;21.066;2023-04-29T07:49:21;101583.56;;;10.65;53.79
54628;BME280;40525;55.926;21.066;2023-04-29T07:52:01;101583.35;;;10.77;53.75
54628;BME280;40525;55.926;21.066;2023-04-29T07:54:44;101580.45;;;10.91;53.62
54628;BME280;40525;55.926;21.066;2023-04-29T07:57:25;101573.08;;;11.01;53.43
54628;BME280;40525;55.926;21.066;2023-04-29T08:00:05;101569.08;;;11.10;54.01
54628;BME280;40525;55.926;21.066;2023-04-29T08:02:52;101570.97;;;11.21;53.35
54628;BME280;40525;55.926;21.066;2023-04-29T08:05:34;101568.51;;;11.31;52.81
54628;BME280;40525;55.926;21.066;2023-04-29T08:08:15;101568.98;;;11.43;51.75
54628;BME280;40525;55.926;21.066;2023-04-29T08:10:57;101569.52;;;11.58;52.67
54628;BME280;40525;55.926;21.066;2023-04-29T08:13:38;101566.14;;;11.73;50.60
54628;BME280;40525;55.926;21.066;2023-04-29T08:16:18;101569.13;;;11.88;47.99
54628;BME280;40525;55.926;21.066;2023-04-29T08:19:05;101564.39;;;12.02;48.43
54628;BME280;40525;55.926;21.066;2023-04-29T08:21:59;101561.69;;;12.17;47.49
54628;BME280;40525;55.926;21.066;2023-04-29T08:24:33;101559.84;;;12.33;47.74
54628;BME280;40525;55.926;21.066;2023-04-29T08:27:22;101557.60;;;12.49;47.07
54628;BME280;40525;55.926;21.066;2023-04-29T08:30:04;101555.17;;;12.66;45.68
54628;BME280;40525;55.926;21.066;2023-04-29T08:32:44;101552.23;;;12.78;45.06
54628;BME280;40525;55.926;21.066;2023-04-29T08:35:24;101544.50;;;12.90;43.90
54628;BME280;40525;55.926;21.066;2023-04-29T08:38:04;101539.73;;;13.02;44.55
54628;BME280;40525;55.926;21.066;2023-04-29T08:40:45;101541.86;;;13.14;43.74
54628;BME280;40525;55.926;21.066;2023-04-29T08:43:25;101539.13;;;13.24;44.29
54628;BME280;40525;55.926;21.066;2023-04-29T08:46:06;101537.16;;;13.34;44.97
54628;BME280;40525;55.926;21.066;2023-04-29T08:48:46;101538.80;;;13.45;44.41
54628;BME280;40525;55.926;21.066;2023-04-29T08:51:27;101537.39;;;13.56;44.71
54628;BME280;40525;55.926;21.066;2023-04-29T08:54:07;101533.52;;;13.67;44.52
54628;BME280;40525;55.926;21.066;2023-04-29T08:56:48;101530.63;;;13.81;44.15
54628;BME280;40525;55.926;21.066;2023-04-29T08:59:31;101525.36;;;13.95;44.84
54628;BME280;40525;55.926;21.066;2023-04-29T09:02:14;101523.65;;;14.13;44.58
54628;BME280;40525;55.926;21.066;2023-04-29T09:05:07;101522.30;;;14.27;41.87
54628;BME280;40525;55.926;21.066;2023-04-29T09:07:50;101522.92;;;14.32;39.48
54628;BME280;40525;55.926;21.066;2023-04-29T09:10:32;101522.82;;;14.37;39.06
54628;BME280;40525;55.926;21.066;2023-04-29T09:13:28;101520.67;;;14.45;40.46
54628;BME280;40525;55.926;21.066;2023-04-29T09:16:11;101515.71;;;14.57;38.96
54628;BME280;40525;55.926;21.066;2023-04-29T09:18:59;101511.29;;;14.68;37.68
54628;BME280;40525;55.926;21.066;2023-04-29T09:21:54;101509.60;;;14.80;37.51
54628;BME280;40525;55.926;21.066;2023-04-29T09:24:30;101508.41;;;14.79;34.91
54628;BME280;40525;55.926;21.066;2023-04-29T09:27:26;101505.90;;;14.76;33.75
54628;BME280;40525;55.926;21.066;2023-04-29T09:30:01;101503.98;;;14.79;33.84
54628;BME280;40525;55.926;21.066;2023-04-29T09:33:07;101501.81;;;14.80;33.98
54628;BME280;40525;55.926;21.066;2023-04-29T09:35:41;101498.55;;;14.85;35.38
54628;BME280;40525;55.926;21.066;2023-04-29T09:38:28;101499.28;;;14.92;36.44
54628;BME280;40525;55.926;21.066;2023-04-29T09:41:08;101502.28;;;14.81;35.92
54628;BME280;40525;55.926;21.066;2023-04-29T09:44:06;101503.21;;;14.74;36.52
54628;BME280;40525;55.926;21.066;2023-04-29T09:46:40;101501.59;;;14.71;36.68
54628;BME280;40525;55.926;21.066;2023-04-29T09:49:29;101498.02;;;14.67;36.85
54628;BME280;40525;55.926;21.066;2023-04-29T09:52:04;101491.22;;;14.62;38.33
54628;BME280;40525;55.926;21.066;2023-04-29T09:54:50;101496.48;;;14.63;39.08
54628;BME280;40525;55.926;21.066;2023-04-29T09:57:38;101489.69;;;14.78;38.32
54628;BME280;40525;55.926;21.066;2023-04-29T10:00:30;101490.73;;;14.99;36.96
54628;BME280;40525;55.926;21.066;2023-04-29T10:03:13;101487.26;;;15.15;37.09
54628;BME280;40525;55.926;21.066;2023-04-29T10:05:54;101486.57;;;15.32;36.42
54628;BME280;40525;55.926;21.066;2023-04-29T10:08:36;101480.28;;;15.37;36.19
54628;BME280;40525;55.926;21.066;2023-04-29T10:11:17;101480.48;;;15.39;35.12
54628;BME280;40525;55.926;21.066;2023-04-29T10:13:57;101483.05;;;15.54;34.47
54628;BME280;40525;55.926;21.066;2023-04-29T10:16:58;101475.23;;;15.55;34.28
54628;BME280;40525;55.926;21.066;2023-04-29T10:19:57;101473.05;;;15.56;34.71
54628;BME280;40525;55.926;21.066;2023-04-29T10:22:54;101467.85;;;15.83;34.31
54628;BME280;40525;55.926;21.066;2023-04-29T10:25:29;101462.75;;;16.11;33.51
54628;BME280;40525;55.926;21.066;2023-04-29T10:28:17;101455.27;;;16.33;33.64
54628;BME280;40525;55.926;21.066;2023-04-29T10:30:53;101451.43;;;16.50;34.28
54628;BME280;40525;55.926;21.066;2023-04-29T10:33:46;101448.93;;;16.60;34.38
54628;BME280;40525;55.926;21.066;2023-04-29T10:36:21;101446.71;;;16.70;34.99
54628;BME280;40525;55.926;21.066;2023-04-29T10:39:33;101446.25;;;16.84;34.46
54628;BME280;40525;55.926;21.066;2023-04-29T10:42:30;101447.20;;;16.95;33.79
54628;BME280;40525;55.926;21.066;2023-04-29T10:53:21;101427.68;;;17.18;33.05
54628;BME280;40525;55.926;21.066;2023-04-29T10:56:09;101425.85;;;17.15;32.55
54628;BME280;40525;55.926;21.066;2023-04-29T10:58:45;101422.29;;;17.13;32.66
54628;BME280;40525;55.926;21.066;2023-04-29T11:04:21;101424.36;;;17.40;32.75
54628;BME280;40525;55.926;21.066;2023-04-29T11:07:01;101430.95;;;17.37;31.92
54628;BME280;40525;55.926;21.066;2023-04-29T11:09:42;101423.20;;;17.36;32.63
54628;BME280;40525;55.926;21.066;2023-04-29T11:12:21;101417.17;;;17.36;33.03
54628;BME280;40525;55.926;21.066;2023-04-29T11:15:02;101415.30;;;17.40;33.28
54628;BME280;40525;55.926;21.066;2023-04-29T11:17:45;101407.67;;;17.36;33.38
54628;BME280;40525;55.926;21.066;2023-04-29T11:24:00;101399.66;;;17.20;33.96
54628;BME280;40525;55.926;21.066;2023-04-29T11:26:36;101398.10;;;17.16;34.02
54628;BME280;40525;55.926;21.066;2023-04-29T11:29:23;101390.11;;;17.10;33.16
54628;BME280;40525;55.926;21.066;2023-04-29T11:32:00;101390.55;;;17.06;33.05
54628;BME280;40525;55.926;21.066;2023-04-29T11:34:47;101386.33;;;17.00;33.19
54628;BME280;40525;55.926;21.066;2023-04-29T11:37:25;101386.39;;;16.87;33.67
54628;BME280;40525;55.926;21.066;2023-04-29T11:40:12;101383.17;;;16.79;34.22
54628;BME280;40525;55.926;21.066;2023-04-29T11:42:47;101380.96;;;16.68;34.40
54628;BME280;40525;55.926;21.066;2023-04-29T11:45:34;101376.95;;;16.64;34.67
54628;BME280;40525;55.926;21.066;2023-04-29T11:48:08;101373.90;;;16.64;34.78
54628;BME280;40525;55.926;21.066;2023-04-29T11:50:58;101372.13;;;16.56;34.77
54628;BME280;40525;55.926;21.066;2023-04-29T11:53:33;101370.40;;;16.43;35.37
54628;BME280;40525;55.926;21.066;2023-04-29T11:56:21;101377.13;;;16.34;35.24
54628;BME280;40525;55.926;21.066;2023-04-29T11:58:57;101376.66;;;16.27;35.74
54628;BME280;40525;55.926;21.066;2023-04-29T12:01:47;101379.70;;;16.15;35.80
54628;BME280;40525;55.926;21.066;2023-04-29T12:04:21;101379.73;;;16.02;36.51
54628;BME280;40525;55.926;21.066;2023-04-29T12:07:08;101378.42;;;15.91;37.05
54628;BME280;40525;55.926;21.066;2023-04-29T12:09:43;101378.33;;;15.80;37.36
54628;BME280;40525;55.926;21.066;2023-04-29T12:12:30;101371.19;;;15.70;37.63
54628;BME280;40525;55.926;21.066;2023-04-29T12:15:09;101362.40;;;15.63;38.04
54628;BME280;40525;55.926;21.066;2023-04-29T12:17:56;101364.15;;;15.57;38.50
54628;BME280;40525;55.926;21.066;2023-04-29T12:20:50;101364.67;;;15.51;38.19
54628;BME280;40525;55.926;21.066;2023-04-29T12:23:44;101363.41;;;15.45;38.46
54628;BME280;40525;55.926;21.066;2023-04-29T12:26:18;101360.16;;;15.43;38.80
54628;BME280;40525;55.926;21.066;2023-04-29T12:29:09;101360.34;;;15.39;38.71
54628;BME280;40525;55.926;21.066;2023-04-29T12:31:46;101352.46;;;15.32;38.66
54628;BME280;40525;55.926;21.066;2023-04-29T12:34:33;101353.66;;;15.29;39.18
54628;BME280;40525;55.926;21.066;2023-04-29T12:37:14;101349.24;;;15.26;39.21
54628;BME280;40525;55.926;21.066;2023-04-29T12:39:54;101344.33;;;15.25;39.65
54628;BME280;40525;55.926;21.066;2023-04-29T12:42:34;101343.59;;;15.26;39.74
54628;BME280;40525;55.926;21.066;2023-04-29T12:45:30;101341.06;;;15.23;39.66
54628;BME280;40525;55.926;21.066;2023-04-29T12:48:11;101334.06;;;15.21;39.89
54628;BME280;40525;55.926;21.066;2023-04-29T12:51:03;101325.59;;;15.21;40.26
54628;BME280;40525;55.926;21.066;2023-04-29T12:53:44;101318.39;;;15.20;40.30
54628;BME280;40525;55.926;21.066;2023-04-29T12:56:24;101317.95;;;15.21;40.54
54628;BME280;40525;55.926;21.066;2023-04-29T12:59:08;101314.54;;;15.22;40.66
54628;BME280;40525;55.926;21.066;2023-04-29T13:01:49;101310.84;;;15.22;40.70
54628;BME280;40525;55.926;21.066;2023-04-29T13:04:29;101312.92;;;15.22;40.87
54628;BME280;40525;55.926;21.066;2023-04-29T13:07:11;101307.89;;;15.24;41.28
54628;BME280;40525;55.926;21.066;2023-04-29T13:09:51;101302.73;;;15.28;41.39
54628;BME280;40525;55.926;21.066;2023-04-29T13:12:32;101300.33;;;15.33;41.62
54628;BME280;40525;55.926;21.066;2023-04-29T13:15:11;101300.17;;;15.38;41.27
54628;BME280;40525;55.926;21.066;2023-04-29T13:17:51;101298.07;;;15.44;41.49
54628;BME280;40525;55.926;21.066;2023-04-29T13:20:38;101290.42;;;15.51;41.56
54628;BME280;40525;55.926;21.066;2023-04-29T13:23:32;101287.17;;;15.55;41.08
54628;BME280;40525;55.926;21.066;2023-04-29T13:26:06;101286.03;;;15.59;40.95
54628;BME280;40525;55.926;21.066;2023-04-29T13:28:53;101284.97;;;15.62;41.29
54628;BME280;40525;55.926;21.066;2023-04-29T13:31:27;101277.34;;;15.66;41.50
54628;BME280;40525;55.926;21.066;2023-04-29T13:34:13;101272.94;;;15.69;41.39
54628;BME280;40525;55.926;21.066;2023-04-29T13:36:47;101269.53;;;15.72;41.39
54628;BME280;40525;55.926;21.066;2023-04-29T13:39:33;101267.08;;;15.78;41.63
54628;BME280;40525;55.926;21.066;2023-04-29T13:42:19;101261.96;;;15.81;41.43
54628;BME280;40525;55.926;21.066;2023-04-29T13:45:00;101260.83;;;15.85;41.24
54628;BME280;40525;55.926;21.066;2023-04-29T13:47:40;101258.17;;;15.88;41.20
54628;BME280;40525;55.926;21.066;2023-04-29T13:50:40;101254.38;;;15.92;41.21
54628;BME280;40525;55.926;21.066;2023-04-29T13:53:40;101252.34;;;16.00;41.25
54628;BME280;40525;55.926;21.066;2023-04-29T13:56:23;101249.57;;;16.05;41.35
54628;BME280;40525;55.926;21.066;2023-04-29T13:59:07;101246.86;;;16.08;41.20
54628;BME280;40525;55.926;21.066;2023-04-29T14:02:07;101244.46;;;16.13;41.53
54628;BME280;40525;55.926;21.066;2023-04-29T14:04:57;101247.73;;;16.17;41.13
54628;BME280;40525;55.926;21.066;2023-04-29T14:07:37;101246.79;;;16.21;41.26
54628;BME280;40525;55.926;21.066;2023-04-29T14:10:17;101245.45;;;16.23;40.74
54628;BME280;40525;55.926;21.066;2023-04-29T14:13:04;101245.52;;;16.22;40.46
54628;BME280;40525;55.926;21.066;2023-04-29T14:15:37;101244.94;;;16.19;40.52
54628;BME280;40525;55.926;21.066;2023-04-29T14:18:24;101237.73;;;16.18;40.43
54628;BME280;40525;55.926;21.066;2023-04-29T14:21:18;101234.47;;;16.16;40.21
54628;BME280;40525;55.926;21.066;2023-04-29T14:24:12;101226.15;;;16.10;39.57
54628;BME280;40525;55.926;21.066;2023-04-29T14:26:46;101222.52;;;16.06;39.45
54628;BME280;40525;55.926;21.066;2023-04-29T14:29:32;101221.09;;;16.04;40.03